| time (UTC) | temp F | wind direction | speed MPH | gust MPH | rain 1hr in | rain 24hr in | rain mn in | humidity % | barometer mb |
| 20260506024036 | 48 | 349 | 2.0 | 9.0 | 0.00 | 0.00 | 0.00 | 52 | 1010.0 |
| 20260506023537 | 48 | 305 | 2.0 | 9.0 | 0.00 | 0.00 | 0.00 | 51 | 1009.8 |
| 20260506023040 | 48 | 321 | 2.0 | 4.0 | 0.00 | 0.00 | 0.00 | 51 | 1009.6 |
| 20260506022539 | 48 | 321 | 1.0 | 4.0 | 0.00 | 0.00 | 0.00 | 51 | 1009.8 |
| 20260506022034 | 48 | 320 | 1.0 | 4.0 | 0.00 | 0.00 | 0.00 | 51 | 1009.6 |
| 20260506021544 | 48 | 323 | 0.0 | 3.0 | 0.00 | 0.00 | 0.00 | 50 | 1009.6 |
| 20260506021036 | 49 | 321 | 1.0 | 3.0 | 0.00 | 0.00 | 0.00 | 50 | 1009.6 |
| 20260506020535 | 49 | 0 | 0.0 | 3.0 | 0.00 | 0.00 | 0.00 | 50 | 1009.4 |
| 20260506020050 | 49 | 324 | 1.0 | 3.0 | 0.00 | 0.00 | 0.00 | 49 | 1009.4 |
| 20260506015536 | 49 | 323 | 1.0 | 3.0 | 0.00 | 0.00 | 0.00 | 48 | 1009.1 |
| 20260506015037 | 49 | 322 | 1.0 | 3.0 | 0.00 | 0.00 | 0.00 | 49 | 1009.1 |
| 20260506014551 | 50 | 0 | 0.0 | 5.0 | 0.00 | 0.00 | 0.00 | 48 | 1008.9 |
| 20260506014038 | 50 | 0 | 1.0 | 8.0 | 0.00 | 0.00 | 0.00 | 47 | 1008.9 |
| 20260506013539 | 50 | 318 | 1.0 | 8.0 | 0.00 | 0.00 | 0.00 | 47 | 1008.8 |
| 20260506013058 | 50 | 346 | 3.0 | 8.0 | 0.00 | 0.00 | 0.00 | 46 | 1008.8 |
| 20260506012536 | 51 | 319 | 2.0 | 5.0 | 0.00 | 0.00 | 0.00 | 46 | 1008.6 |
| 20260506012037 | 51 | 329 | 1.0 | 10.0 | 0.00 | 0.00 | 0.00 | 46 | 1008.5 |
| 20260506011556 | 51 | 317 | 1.0 | 10.0 | 0.00 | 0.00 | 0.00 | 46 | 1008.4 |
| 20260506011035 | 51 | 327 | 4.0 | 10.0 | 0.00 | 0.00 | 0.00 | 45 | 1008.2 |
| 20260506010536 | 51 | 315 | 3.0 | 10.0 | 0.00 | 0.00 | 0.00 | 45 | 1008.3 |
| 20260506010055 | 52 | 337 | 4.0 | 11.0 | 0.00 | 0.00 | 0.00 | 46 | 1008.2 |
| 20260506005536 | 52 | 338 | 3.0 | 11.0 | 0.00 | 0.00 | 0.00 | 45 | 1008.3 |
| 20260506005036 | 52 | 5 | 3.0 | 11.0 | 0.00 | 0.00 | 0.00 | 45 | 1008.2 |
| 20260506004543 | 52 | 15 | 4.0 | 10.0 | 0.00 | 0.00 | 0.00 | 44 | 1008.0 |
| 20260506004035 | 53 | 348 | 4.0 | 10.0 | 0.00 | 0.00 | 0.00 | 44 | 1008.0 |
| 20260506003536 | 53 | 309 | 2.0 | 8.0 | 0.00 | 0.00 | 0.00 | 44 | 1008.0 |
| 20260506003041 | 53 | 347 | 3.0 | 10.0 | 0.00 | 0.00 | 0.00 | 43 | 1007.9 |
| 20260506002532 | 53 | 346 | 3.0 | 10.0 | 0.00 | 0.00 | 0.00 | 43 | 1007.8 |
| 20260506002033 | 53 | 331 | 3.0 | 9.0 | 0.00 | 0.00 | 0.00 | 42 | 1007.7 |
| 20260506001550 | 53 | 323 | 2.0 | 10.0 | 0.00 | 0.00 | 0.00 | 43 | 1007.7 |
| 20260506001034 | 53 | 277 | 3.0 | 10.0 | 0.00 | 0.00 | 0.00 | 43 | 1007.7 |
| 20260506000537 | 54 | 288 | 1.0 | 7.0 | 0.00 | 0.00 | 0.00 | 43 | 1007.7 |
| 20260506000049 | 54 | 335 | 2.0 | 9.0 | 0.00 | 0.00 | 0.00 | 42 | 1007.7 |
| 20260505235536 | 54 | 315 | 3.0 | 10.0 | 0.00 | 0.00 | 0.00 | 42 | 1007.6 |
| 20260505235036 | 54 | 266 | 3.0 | 10.0 | 0.00 | 0.00 | 0.00 | 42 | 1007.6 |
| 20260505234545 | 54 | 285 | 4.0 | 11.0 | 0.00 | 0.00 | 0.00 | 42 | 1007.6 |
| 20260505234037 | 54 | 309 | 4.0 | 11.0 | 0.00 | 0.00 | 0.00 | 41 | 1007.7 |
| 20260505233535 | 54 | 328 | 3.0 | 9.0 | 0.00 | 0.00 | 0.00 | 42 | 1007.7 |
| 20260505233046 | 54 | 334 | 3.0 | 11.0 | 0.00 | 0.00 | 0.00 | 40 | 1007.5 |
| 20260505232535 | 54 | 337 | 5.0 | 11.0 | 0.00 | 0.00 | 0.00 | 40 | 1007.6 |
| 20260505232035 | 55 | 319 | 3.0 | 12.0 | 0.00 | 0.00 | 0.00 | 42 | 1007.6 |
| 20260505231544 | 55 | 302 | 5.0 | 12.0 | 0.00 | 0.00 | 0.00 | 40 | 1007.7 |
| 20260505231041 | 55 | 348 | 4.0 | 11.0 | 0.00 | 0.00 | 0.00 | 42 | 1007.7 |
| 20260505230535 | 55 | 315 | 3.0 | 11.0 | 0.00 | 0.00 | 0.00 | 41 | 1007.7 |
| 20260505230057 | 55 | 323 | 3.0 | 11.0 | 0.00 | 0.00 | 0.00 | 41 | 1007.7 |
| 20260505225536 | 55 | 320 | 5.0 | 13.0 | 0.00 | 0.00 | 0.00 | 40 | 1007.7 |
| 20260505225038 | 56 | 312 | 4.0 | 13.0 | 0.00 | 0.00 | 0.00 | 41 | 1007.7 |
| 20260505224552 | 56 | 266 | 3.0 | 12.0 | 0.00 | 0.00 | 0.00 | 41 | 1007.8 |
| 20260505224040 | 56 | 321 | 5.0 | 12.0 | 0.00 | 0.00 | 0.00 | 39 | 1007.8 |
| 20260505223533 | 56 | 222 | 2.0 | 12.0 | 0.00 | 0.00 | 0.00 | 40 | 1007.6 |
| 20260505223057 | 56 | 299 | 5.0 | 12.0 | 0.00 | 0.00 | 0.00 | 40 | 1007.8 |
| 20260505222534 | 56 | 277 | 4.0 | 12.0 | 0.00 | 0.00 | 0.00 | 39 | 1007.5 |
| 20260505222034 | 56 | 270 | 3.0 | 12.0 | 0.00 | 0.00 | 0.00 | 40 | 1007.4 |
| 20260505221553 | 57 | 264 | 3.0 | 12.0 | 0.00 | 0.00 | 0.00 | 41 | 1007.6 |
| 20260505221037 | 57 | 265 | 5.0 | 11.0 | 0.00 | 0.00 | 0.00 | 40 | 1007.6 |
| 20260505220533 | 57 | 294 | 3.0 | 15.0 | 0.00 | 0.00 | 0.00 | 41 | 1007.4 |
| 20260505220047 | 56 | 318 | 6.0 | 15.0 | 0.00 | 0.00 | 0.00 | 39 | 1007.2 |
| 20260505215534 | 57 | 5 | 4.0 | 12.0 | 0.00 | 0.00 | 0.00 | 43 | 1007.4 |
| 20260505215034 | 57 | 295 | 5.0 | 12.0 | 0.00 | 0.00 | 0.00 | 40 | 1007.4 |
| 20260505214544 | 56 | 355 | 3.0 | 15.0 | 0.00 | 0.00 | 0.00 | 41 | 1007.4 |
| 20260505214034 | 55 | 261 | 4.0 | 15.0 | 0.00 | 0.00 | 0.00 | 44 | 1007.7 |
| 20260505213534 | 55 | 242 | 6.0 | 12.0 | 0.00 | 0.00 | 0.00 | 42 | 1007.5 |
| 20260505213053 | 56 | 292 | 4.0 | 10.0 | 0.00 | 0.00 | 0.00 | 42 | 1007.5 |
| 20260505212538 | 56 | 260 | 3.0 | 12.0 | 0.00 | 0.00 | 0.00 | 45 | 1007.4 |
| 20260505212035 | 56 | 302 | 5.0 | 12.0 | 0.00 | 0.00 | 0.00 | 42 | 1007.5 |
| 20260505211545 | 56 | 328 | 5.0 | 14.0 | 0.00 | 0.00 | 0.00 | 43 | 1007.6 |
| 20260505211035 | 56 | 327 | 6.0 | 14.0 | 0.00 | 0.00 | 0.00 | 41 | 1007.5 |
| 20260505210536 | 55 | 284 | 3.0 | 13.0 | 0.00 | 0.00 | 0.00 | 44 | 1007.4 |
| 20260505210057 | 56 | 290 | 4.0 | 15.0 | 0.00 | 0.00 | 0.00 | 43 | 1007.4 |
| 20260505205533 | 56 | 289 | 7.0 | 15.0 | 0.00 | 0.00 | 0.00 | 42 | 1007.5 |
| 20260505205037 | 56 | 18 | 7.0 | 14.0 | 0.00 | 0.00 | 0.00 | 41 | 1007.5 |
| 20260505204553 | 56 | 300 | 5.0 | 11.0 | 0.00 | 0.00 | 0.00 | 44 | 1007.6 |
| 20260505204037 | 56 | 314 | 5.0 | 10.0 | 0.00 | 0.00 | 0.00 | 44 | 1007.6 |
| 20260505203535 | 56 | 278 | 3.0 | 14.0 | 0.00 | 0.00 | 0.00 | 45 | 1007.6 |
| 20260505203116 | 56 | 300 | 4.0 | 14.0 | 0.00 | 0.00 | 0.00 | 46 | 1007.8 |
| 20260505202535 | 56 | 319 | 4.0 | 10.0 | 0.00 | 0.00 | 0.00 | 43 | 1008.0 |
| 20260505202035 | 56 | 267 | 4.0 | 13.0 | 0.00 | 0.00 | 0.00 | 42 | 1007.9 |
| 20260505201551 | 56 | 341 | 5.0 | 15.0 | 0.00 | 0.00 | 0.00 | 41 | 1008.1 |
| 20260505201035 | 56 | 302 | 7.0 | 15.0 | 0.00 | 0.00 | 0.00 | 43 | 1008.1 |
| 20260505200535 | 56 | 287 | 7.0 | 15.0 | 0.00 | 0.00 | 0.00 | 43 | 1007.9 |
| 20260505200055 | 56 | 246 | 8.0 | 15.0 | 0.00 | 0.00 | 0.00 | 44 | 1008.0 |
| 20260505195535 | 56 | 263 | 5.0 | 14.0 | 0.00 | 0.00 | 0.00 | 46 | 1008.1 |
| 20260505195033 | 55 | 185 | 6.0 | 15.0 | 0.00 | 0.00 | 0.00 | 43 | 1008.2 |
| 20260505194557 | 55 | 227 | 7.0 | 15.0 | 0.00 | 0.00 | 0.00 | 47 | 1008.3 |
| 20260505194034 | 55 | 26 | 6.0 | 15.0 | 0.00 | 0.00 | 0.00 | 42 | 1008.3 |
| 20260505193535 | 55 | 291 | 6.0 | 15.0 | 0.00 | 0.00 | 0.00 | 44 | 1008.2 |
| 20260505193045 | 55 | 334 | 4.0 | 14.0 | 0.00 | 0.00 | 0.00 | 43 | 1008.3 |
| 20260505192535 | 54 | 336 | 7.0 | 14.0 | 0.00 | 0.00 | 0.00 | 46 | 1008.5 |
| 20260505192033 | 55 | 287 | 5.0 | 14.0 | 0.00 | 0.00 | 0.00 | 43 | 1008.4 |
| 20260505191550 | 55 | 261 | 7.0 | 14.0 | 0.00 | 0.00 | 0.00 | 45 | 1008.5 |
| 20260505191038 | 55 | 301 | 5.0 | 14.0 | 0.00 | 0.00 | 0.00 | 47 | 1008.5 |
| 20260505190535 | 55 | 265 | 4.0 | 14.0 | 0.00 | 0.00 | 0.00 | 46 | 1008.5 |
| 20260505190047 | 54 | 283 | 6.0 | 14.0 | 0.00 | 0.00 | 0.00 | 48 | 1008.6 |
| 20260505185534 | 54 | 279 | 5.0 | 14.0 | 0.00 | 0.00 | 0.00 | 46 | 1008.3 |
| 20260505185034 | 54 | 266 | 3.0 | 14.0 | 0.00 | 0.00 | 0.00 | 47 | 1008.4 |
| 20260505184550 | 54 | 346 | 7.0 | 17.0 | 0.00 | 0.00 | 0.00 | 45 | 1008.4 |
| 20260505184036 | 54 | 263 | 7.0 | 17.0 | 0.00 | 0.00 | 0.00 | 45 | 1008.3 |
| 20260505183535 | 55 | 262 | 7.0 | 14.0 | 0.00 | 0.00 | 0.00 | 43 | 1008.2 |
| 20260505183056 | 54 | 300 | 3.0 | 16.0 | 0.00 | 0.00 | 0.00 | 50 | 1008.2 |
| 20260505182533 | 54 | 214 | 4.0 | 16.0 | 0.00 | 0.00 | 0.00 | 47 | 1008.0 |
| 20260505182037 | 54 | 309 | 7.0 | 16.0 | 0.00 | 0.00 | 0.00 | 43 | 1008.1 |
| 20260505181545 | 54 | 286 | 7.0 | 15.0 | 0.00 | 0.00 | 0.00 | 47 | 1008.1 |
| 20260505181034 | 54 | 333 | 6.0 | 15.0 | 0.00 | 0.00 | 0.00 | 43 | 1007.9 |
| 20260505180533 | 54 | 263 | 7.0 | 15.0 | 0.00 | 0.00 | 0.00 | 44 | 1007.9 |
| 20260505180050 | 54 | 341 | 6.0 | 16.0 | 0.00 | 0.00 | 0.00 | 47 | 1007.7 |
| 20260505175534 | 54 | 325 | 7.0 | 16.0 | 0.00 | 0.00 | 0.00 | 44 | 1007.9 |
| 20260505175035 | 54 | 210 | 6.0 | 16.0 | 0.00 | 0.00 | 0.00 | 44 | 1007.8 |
| 20260505174551 | 54 | 290 | 4.0 | 15.0 | 0.00 | 0.00 | 0.00 | 44 | 1007.7 |
| 20260505174038 | 54 | 318 | 7.0 | 14.0 | 0.00 | 0.00 | 0.00 | 41 | 1007.6 |
| 20260505173534 | 54 | 340 | 5.0 | 14.0 | 0.00 | 0.00 | 0.00 | 45 | 1007.9 |
| 20260505173051 | 54 | 283 | 7.0 | 15.0 | 0.00 | 0.00 | 0.00 | 42 | 1008.0 |
| 20260505172534 | 54 | 188 | 6.0 | 15.0 | 0.00 | 0.00 | 0.00 | 41 | 1007.6 |
| 20260505172034 | 54 | 320 | 6.0 | 12.0 | 0.00 | 0.00 | 0.00 | 44 | 1007.9 |
| 20260505171546 | 53 | 209 | 5.0 | 15.0 | 0.00 | 0.00 | 0.00 | 47 | 1007.7 |
| 20260505171034 | 53 | 288 | 5.0 | 15.0 | 0.00 | 0.00 | 0.00 | 47 | 1008.0 |
| 20260505170533 | 53 | 280 | 8.0 | 15.0 | 0.00 | 0.00 | 0.00 | 45 | 1007.8 |
| 20260505170041 | 53 | 255 | 5.0 | 13.0 | 0.00 | 0.00 | 0.00 | 46 | 1007.7 |
| 20260505165534 | 53 | 281 | 5.0 | 14.0 | 0.00 | 0.00 | 0.00 | 47 | 1007.6 |
| 20260505165033 | 53 | 320 | 7.0 | 14.0 | 0.00 | 0.00 | 0.00 | 46 | 1007.6 |
| 20260505164558 | 53 | 288 | 5.0 | 11.0 | 0.00 | 0.00 | 0.00 | 46 | 1007.5 |
| 20260505164035 | 53 | 284 | 5.0 | 15.0 | 0.00 | 0.00 | 0.00 | 49 | 1007.4 |
| 20260505163535 | 53 | 267 | 5.0 | 15.0 | 0.00 | 0.00 | 0.00 | 47 | 1007.4 |
| 20260505163049 | 53 | 270 | 6.0 | 13.0 | 0.00 | 0.00 | 0.00 | 48 | 1007.5 |
| 20260505162535 | 53 | 234 | 6.0 | 17.0 | 0.00 | 0.00 | 0.00 | 49 | 1007.6 |
| 20260505162035 | 53 | 260 | 5.0 | 18.0 | 0.00 | 0.00 | 0.00 | 47 | 1007.7 |
| 20260505161545 | 53 | 252 | 7.0 | 18.0 | 0.00 | 0.00 | 0.00 | 47 | 1007.7 |
| 20260505161035 | 53 | 297 | 9.0 | 17.0 | 0.00 | 0.00 | 0.00 | 44 | 1007.6 |
| 20260505160534 | 53 | 355 | 5.0 | 12.0 | 0.00 | 0.00 | 0.00 | 48 | 1007.4 |
| 20260505153105 | 53 | 260 | 6.0 | 12.0 | 0.00 | 0.00 | 0.00 | 51 | 1007.5 |
| 20260505152534 | 53 | 315 | 6.0 | 12.0 | 0.00 | 0.00 | 0.00 | 49 | 1007.6 |
| 20260505152033 | 52 | 236 | 5.0 | 13.0 | 0.00 | 0.00 | 0.00 | 54 | 1007.5 |
| 20260505151554 | 52 | 275 | 6.0 | 14.0 | 0.00 | 0.00 | 0.00 | 49 | 1007.4 |
| 20260505151033 | 52 | 308 | 6.0 | 14.0 | 0.00 | 0.00 | 0.00 | 51 | 1007.5 |
| 20260505150535 | 52 | 261 | 6.0 | 17.0 | 0.00 | 0.00 | 0.00 | 52 | 1007.5 |
| 20260505140536 | 51 | 284 | 6.0 | 15.0 | 0.00 | 0.00 | 0.00 | 51 | 1007.7 |
| 20260505125036 | 48 | 317 | 1.0 | 10.0 | 0.00 | 0.00 | 0.00 | 56 | 1007.8 |
| 20260505124540 | 48 | 325 | 4.0 | 10.0 | 0.00 | 0.00 | 0.00 | 56 | 1007.5 |
| 20260505124034 | 47 | 305 | 2.0 | 7.0 | 0.00 | 0.00 | 0.00 | 61 | 1007.4 |
| 20260505123535 | 46 | 310 | 1.0 | 7.0 | 0.00 | 0.00 | 0.00 | 61 | 1007.7 |
| 20260505123050 | 46 | 284 | 0.0 | 5.0 | 0.00 | 0.00 | 0.00 | 61 | 1008.2 |
| 20260505122537 | 46 | 273 | 1.0 | 5.0 | 0.00 | 0.00 | 0.00 | 62 | 1007.8 |
| 20260505122037 | 45 | 291 | 1.0 | 6.0 | 0.00 | 0.00 | 0.00 | 63 | 1007.6 |
| 20260505121550 | 45 | 297 | 1.0 | 6.0 | 0.00 | 0.00 | 0.00 | 64 | 1007.4 |
| 20260505121033 | 44 | 321 | 2.0 | 5.0 | 0.00 | 0.00 | 0.00 | 65 | 1007.4 |
| 20260505120534 | 44 | 288 | 0.0 | 5.0 | 0.00 | 0.00 | 0.00 | 67 | 1007.9 |
| 20260505120041 | 43 | 0 | 0.0 | 5.0 | 0.00 | 0.00 | 0.00 | 67 | 1008.3 |
| 20260505115534 | 43 | 204 | 3.0 | 5.0 | 0.00 | 0.00 | 0.00 | 69 | 1008.5 |
| 20260505115036 | 43 | 266 | 1.0 | 3.0 | 0.00 | 0.00 | 0.00 | 71 | 1007.6 |
| 20260505114545 | 43 | 0 | 0.0 | 0.0 | 0.00 | 0.00 | 0.00 | 69 | 1007.1 |
| 20260505114035 | 43 | 0 | 0.0 | 0.0 | 0.00 | 0.00 | 0.00 | 67 | 1006.7 |
| 20260505113534 | 43 | 0 | 0.0 | 0.0 | 0.00 | 0.00 | 0.00 | 66 | 1006.8 |
| 20260505113046 | 43 | 0 | 0.0 | 0.0 | 0.00 | 0.00 | 0.00 | 65 | 1006.6 |
| 20260505112534 | 44 | 0 | 0.0 | 0.0 | 0.00 | 0.00 | 0.00 | 64 | 1006.1 |
| 20260505112034 | 44 | 0 | 0.0 | 0.0 | 0.00 | 0.00 | 0.00 | 64 | 1006.2 |
| 20260505111553 | 44 | 0 | 0.0 | 0.0 | 0.00 | 0.00 | 0.00 | 63 | 1006.3 |
| 20260505111036 | 44 | 0 | 0.0 | 0.0 | 0.00 | 0.00 | 0.00 | 61 | 1006.5 |
| 20260505110532 | 44 | 0 | 0.0 | 0.0 | 0.00 | 0.00 | 0.00 | 61 | 1006.6 |
| 20260505102034 | 45 | 325 | 1.0 | 5.0 | 0.00 | 0.00 | 0.00 | 59 | 1006.1 |
| 20260505101547 | 45 | 344 | 2.0 | 6.0 | 0.00 | 0.00 | 0.00 | 59 | 1005.8 |
| 20260505101035 | 45 | 5 | 2.0 | 6.0 | 0.00 | 0.00 | 0.00 | 59 | 1005.8 |
| 20260505100535 | 45 | 334 | 2.0 | 9.0 | 0.00 | 0.00 | 0.00 | 59 | 1006.0 |
| 20260505100050 | 45 | 360 | 3.0 | 9.0 | 0.00 | 0.00 | 0.00 | 59 | 1006.1 |
| 20260505095534 | 45 | 350 | 2.0 | 8.0 | 0.00 | 0.00 | 0.00 | 60 | 1005.4 |
| 20260505095033 | 45 | 331 | 3.0 | 8.0 | 0.00 | 0.00 | 0.00 | 61 | 1005.4 |
| 20260505094543 | 45 | 337 | 2.0 | 8.0 | 0.00 | 0.00 | 0.00 | 61 | 1005.2 |
| 20260505094033 | 45 | 348 | 3.0 | 8.0 | 0.00 | 0.00 | 0.00 | 60 | 1005.3 |
| 20260505093533 | 45 | 355 | 3.0 | 8.0 | 0.00 | 0.00 | 0.00 | 60 | 1005.6 |
| 20260505093043 | 45 | 332 | 2.0 | 6.0 | 0.00 | 0.00 | 0.00 | 60 | 1005.6 |
| 20260505092533 | 45 | 278 | 2.0 | 6.0 | 0.00 | 0.00 | 0.00 | 60 | 1005.6 |
| 20260505092033 | 45 | 304 | 1.0 | 4.0 | 0.00 | 0.00 | 0.00 | 61 | 1005.9 |
| 20260505091554 | 45 | 299 | 2.0 | 5.0 | 0.00 | 0.00 | 0.00 | 61 | 1005.9 |
| 20260505091035 | 45 | 324 | 1.0 | 5.0 | 0.00 | 0.00 | 0.00 | 61 | 1005.7 |
| 20260505090533 | 46 | 296 | 0.0 | 4.0 | 0.00 | 0.00 | 0.00 | 61 | 1005.6 |
| 20260505090053 | 46 | 297 | 1.0 | 5.0 | 0.00 | 0.00 | 0.00 | 60 | 1005.4 |
| 20260505085534 | 46 | 311 | 1.0 | 6.0 | 0.00 | 0.00 | 0.00 | 60 | 1005.3 |
| 20260505085034 | 46 | 314 | 2.0 | 8.0 | 0.00 | 0.00 | 0.00 | 59 | 1005.0 |
| 20260505084549 | 46 | 355 | 3.0 | 9.0 | 0.00 | 0.00 | 0.00 | 59 | 1004.9 |
| 20260505084037 | 46 | 5 | 3.0 | 9.0 | 0.00 | 0.00 | 0.00 | 59 | 1004.8 |
| 20260505083538 | 46 | 344 | 4.0 | 11.0 | 0.00 | 0.00 | 0.00 | 59 | 1004.8 |
| 20260505083049 | 46 | 16 | 4.0 | 11.0 | 0.00 | 0.00 | 0.00 | 60 | 1004.6 |
| 20260505082536 | 47 | 13 | 3.0 | 8.0 | 0.00 | 0.00 | 0.00 | 60 | 1004.3 |
| 20260505082038 | 47 | 355 | 2.0 | 8.0 | 0.00 | 0.00 | 0.00 | 60 | 1004.4 |
| 20260505081559 | 47 | 335 | 2.0 | 9.0 | 0.00 | 0.00 | 0.00 | 60 | 1004.3 |
| 20260505081038 | 48 | 325 | 3.0 | 9.0 | 0.00 | 0.00 | 0.00 | 60 | 1004.4 |
| 20260505080541 | 48 | 344 | 1.0 | 9.0 | 0.00 | 0.00 | 0.00 | 60 | 1004.3 |
| 20260505080049 | 48 | 347 | 1.0 | 15.0 | 0.00 | 0.00 | 0.00 | 59 | 1004.0 |
| 20260505075537 | 48 | 346 | 3.0 | 17.0 | 0.00 | 0.00 | 0.00 | 59 | 1003.8 |
| 20260505075038 | 49 | 15 | 8.0 | 17.0 | 0.00 | 0.00 | 0.00 | 58 | 1003.6 |
| 20260505074605 | 49 | 337 | 7.0 | 18.0 | 0.00 | 0.00 | 0.00 | 58 | 1003.5 |
| 20260505074038 | 49 | 68 | 9.0 | 18.0 | 0.00 | 0.00 | 0.00 | 58 | 1003.1 |
| 20260505073538 | 49 | 14 | 6.0 | 14.0 | 0.00 | 0.00 | 0.00 | 59 | 1003.0 |
| 20260505073051 | 50 | 26 | 2.0 | 6.0 | 0.00 | 0.00 | 0.00 | 58 | 1003.3 |
| 20260505072538 | 50 | 352 | 1.0 | 10.0 | 0.00 | 0.00 | 0.00 | 58 | 1003.2 |
| 20260505072037 | 50 | 294 | 3.0 | 10.0 | 0.00 | 0.00 | 0.00 | 57 | 1003.1 |
| 20260505071549 | 50 | 9 | 4.0 | 9.0 | 0.00 | 0.00 | 0.00 | 57 | 1003.0 |
| 20260505071038 | 51 | 34 | 2.0 | 10.0 | 0.00 | 0.00 | 0.00 | 57 | 1003.0 |
| 20260505070538 | 51 | 316 | 3.0 | 10.0 | 0.00 | 0.00 | 0.00 | 56 | 1002.8 |
| 20260505070052 | 51 | 327 | 4.0 | 10.0 | 0.00 | 0.00 | 0.00 | 56 | 1002.8 |
| 20260505065535 | 51 | 331 | 3.0 | 10.0 | 0.00 | 0.00 | 0.00 | 57 | 1003.0 |
| 20260505065037 | 52 | 310 | 2.0 | 15.0 | 0.00 | 0.00 | 0.00 | 57 | 1003.0 |
| 20260505064551 | 52 | 305 | 6.0 | 15.0 | 0.00 | 0.00 | 0.00 | 57 | 1002.9 |
| 20260505064037 | 52 | 316 | 5.0 | 13.0 | 0.00 | 0.00 | 0.00 | 57 | 1002.9 |
| 20260505063538 | 52 | 309 | 4.0 | 12.0 | 0.00 | 0.00 | 0.00 | 56 | 1002.6 |
| 20260505063055 | 53 | 347 | 4.0 | 16.0 | 0.00 | 0.00 | 0.00 | 56 | 1002.3 |
| 20260505062538 | 53 | 342 | 7.0 | 16.0 | 0.00 | 0.00 | 0.00 | 55 | 1002.3 |
| 20260505062037 | 53 | 9 | 8.0 | 18.0 | 0.00 | 0.00 | 0.00 | 54 | 1002.3 |
| 20260505061617 | 53 | 325 | 9.0 | 18.0 | 0.00 | 0.00 | 0.00 | 53 | 1002.2 |
| 20260505061037 | 54 | 340 | 8.0 | 17.0 | 0.00 | 0.00 | 0.00 | 53 | 1002.1 |
| 20260505060539 | 54 | 5 | 8.0 | 15.0 | 0.00 | 0.00 | 0.00 | 53 | 1002.1 |
| 20260505060056 | 54 | 324 | 7.0 | 18.0 | 0.00 | 0.00 | 0.00 | 53 | 1002.0 |
| 20260505055537 | 55 | 19 | 9.0 | 18.0 | 0.00 | 0.00 | 0.00 | 52 | 1002.1 |
| 20260505055040 | 55 | 360 | 7.0 | 18.0 | 0.00 | 0.00 | 0.00 | 52 | 1002.2 |
| 20260505054601 | 55 | 360 | 4.0 | 13.0 | 0.00 | 0.00 | 0.00 | 51 | 1002.1 |
| 20260505054037 | 55 | 351 | 5.0 | 14.0 | 0.00 | 0.00 | 0.00 | 51 | 1001.9 |
| 20260505053534 | 55 | 298 | 4.0 | 14.0 | 0.00 | 0.00 | 0.00 | 51 | 1001.9 |
| 20260505053044 | 55 | 294 | 4.0 | 12.0 | 0.00 | 0.00 | 0.00 | 50 | 1001.7 |
| 20260505052535 | 56 | 338 | 5.0 | 12.0 | 0.00 | 0.00 | 0.00 | 49 | 1001.7 |
| 20260505052034 | 56 | 288 | 4.0 | 12.0 | 0.00 | 0.00 | 0.00 | 49 | 1001.7 |
| 20260505051541 | 56 | 340 | 4.0 | 12.0 | 0.00 | 0.00 | 0.00 | 48 | 1001.4 |
| 20260505051034 | 57 | 302 | 4.0 | 12.0 | 0.00 | 0.00 | 0.00 | 48 | 1001.4 |
| 20260505050532 | 57 | 323 | 4.0 | 12.0 | 0.00 | 0.00 | 0.00 | 47 | 1001.2 |
| 20260505041543 | 60 | 338 | 8.0 | 18.0 | 0.00 | 0.00 | 0.00 | 42 | 1000.2 |
| 20260505041034 | 60 | 339 | 6.0 | 15.0 | 0.00 | 0.00 | 0.00 | 43 | 1000.3 |
| 20260505040536 | 60 | 256 | 6.0 | 14.0 | 0.00 | 0.00 | 0.00 | 43 | 1000.2 |
| 20260505040044 | 60 | 309 | 5.0 | 13.0 | 0.00 | 0.00 | 0.00 | 44 | 1000.1 |
| 20260505035534 | 60 | 279 | 6.0 | 11.0 | 0.00 | 0.00 | 0.00 | 45 | 1000.0 |
| 20260505035034 | 61 | 313 | 4.0 | 11.0 | 0.00 | 0.00 | 0.00 | 46 | 1000.0 |
| 20260505034541 | 61 | 322 | 4.0 | 11.0 | 0.00 | 0.00 | 0.00 | 46 | 1000.1 |
| 20260505034034 | 61 | 296 | 2.0 | 11.0 | 0.00 | 0.00 | 0.00 | 46 | 1000.1 |
| 20260505033534 | 61 | 329 | 4.0 | 11.0 | 0.00 | 0.00 | 0.00 | 46 | 1000.1 |
| 20260505033051 | 61 | 288 | 3.0 | 9.0 | 0.00 | 0.00 | 0.00 | 46 | 1000.2 |
| 20260505032533 | 62 | 315 | 2.0 | 11.0 | 0.00 | 0.00 | 0.00 | 46 | 1000.2 |
| 20260505032037 | 62 | 314 | 4.0 | 11.0 | 0.00 | 0.00 | 0.00 | 45 | 1000.2 |
| 20260505031545 | 62 | 309 | 3.0 | 13.0 | 0.00 | 0.00 | 0.00 | 45 | 1000.2 |
| 20260505031035 | 62 | 277 | 5.0 | 13.0 | 0.00 | 0.00 | 0.00 | 45 | 1000.0 |
| 20260505030534 | 62 | 297 | 5.0 | 12.0 | 0.00 | 0.00 | 0.00 | 45 | 999.8 |
| 20260505030043 | 62 | 302 | 3.0 | 9.0 | 0.00 | 0.00 | 0.00 | 45 | 999.8 |
| 20260505025534 | 62 | 285 | 3.0 | 10.0 | 0.00 | 0.00 | 0.00 | 44 | 999.6 |
| 20260505025035 | 62 | 293 | 4.0 | 10.0 | 0.00 | 0.00 | 0.00 | 44 | 999.7 |
| 20260505024602 | 63 | 321 | 1.0 | 10.0 | 0.00 | 0.00 | 0.00 | 44 | 999.8 |